Time;durP1;ratioP1;P1;durP2;ratioP2;P2;SDS_P1;SDS_P2;PMS_P1;PMS_P2;Temp;Humidity;BMP_temperature;BMP_pressure;BME280_temperature;BME280_humidity;BME280_pressure;Samples;Min_cycle;Max_cycle;Signal;HPM_P1;HPM_P2
2022/08/06 00:00:02;;;;;;;0.10;0.10;;;17.40;59.90;;;18.60;51.93;102525.53;2022646;29;20051;-77
2022/08/06 00:01:14;;;;;;;0.10;0.10;;;17.30;59.70;;;18.60;51.94;102525.53;2015066;29;20123;-77
2022/08/06 00:02:18;;;;;;;0.03;0.03;;;17.30;59.70;;;18.57;52.10;102528.19;2014536;29;20193;-77
2022/08/06 00:03:25;;;;;;;0.00;0.00;;;17.20;59.70;;;18.53;51.88;102522.66;2023489;29;20060;-77
2022/08/06 00:04:27;;;;;;;0.10;0.10;;;17.20;59.80;;;18.52;52.29;102532.00;2022497;29;20060;-77
2022/08/06 00:05:31;;;;;;;0.10;0.10;;;17.20;59.90;;;18.51;52.01;102530.41;2030758;29;20424;-77
2022/08/06 00:06:40;;;;;;;0.08;0.08;;;17.20;60.00;;;18.49;52.30;102529.97;2030333;29;20064;-77
2022/08/06 00:07:44;;;;;;;0.10;0.10;;;17.10;60.00;;;18.48;52.37;102533.84;2031138;29;20056;-77
2022/08/06 00:08:50;;;;;;;0.10;0.10;;;17.10;60.10;;;18.49;52.07;102529.19;2031027;29;20052;-77
2022/08/06 00:09:56;;;;;;;0.03;0.03;;;17.10;60.10;;;18.47;52.25;102526.78;2023883;29;20144;-77
2022/08/06 00:11:04;;;;;;;0.03;0.03;;;17.10;60.20;;;18.48;52.32;102530.31;2025362;29;20056;-77
2022/08/06 00:12:11;;;;;;;0.00;0.00;;;17.10;60.20;;;18.47;52.27;102526.78;2024171;29;20067;-77
2022/08/06 00:13:18;;;;;;;0.00;0.00;;;17.10;60.30;;;18.47;52.26;102534.22;2024082;29;20056;-77
2022/08/06 00:14:21;;;;;;;0.05;0.05;;;17.10;60.40;;;18.44;52.40;102532.94;2021338;29;20064;-77
2022/08/06 00:15:29;;;;;;;0.00;0.00;;;17.10;60.40;;;18.43;52.29;102527.84;2023896;29;20059;-77
2022/08/06 00:16:52;;;;;;;0.10;0.10;;;17.10;60.40;;;18.43;52.41;102536.84;2031203;29;20060;-78
2022/08/06 00:17:58;;;;;;;0.10;0.10;;;17.10;60.40;;;18.41;52.34;102544.59;2029943;29;20052;-78
2022/08/06 00:19:02;;;;;;;0.00;0.00;;;17.10;60.50;;;18.41;52.67;102538.34;2023389;29;20461;-77
2022/08/06 00:20:12;;;;;;;0.00;0.00;;;17.10;61.10;;;18.37;52.39;102532.75;2022618;29;20469;-77
2022/08/06 00:21:32;;;;;;;0.03;0.03;;;17.00;60.50;;;18.38;52.50;102533.56;2030655;29;20428;-78
2022/08/06 00:22:45;;;;;;;0.10;0.10;;;17.00;61.20;;;18.34;52.47;102536.19;2031230;29;20382;-77
2022/08/06 00:23:50;;;;;;;0.08;0.08;;;17.00;60.60;;;18.34;52.60;102535.41;2032210;29;20109;-77
2022/08/06 00:24:59;;;;;;;0.10;0.10;;;17.00;60.60;;;18.32;52.68;102543.94;2033716;29;20091;-77
2022/08/06 00:26:01;;;;;;;0.10;0.10;;;17.00;60.70;;;18.30;52.79;102538.03;2034082;29;20064;-77
2022/08/06 00:27:05;;;;;;;0.00;0.00;;;17.00;60.70;;;18.28;52.45;102537.59;2023852;29;20055;-77
2022/08/06 00:28:16;;;;;;;0.10;0.10;;;17.00;61.30;;;18.30;52.38;102543.50;2027861;29;20053;-77
2022/08/06 00:29:22;;;;;;;0.10;0.10;;;17.00;60.70;;;18.29;52.44;102535.66;2025953;29;20056;-77
2022/08/06 00:30:34;;;;;;;0.10;0.10;;;16.90;60.70;;;18.27;52.36;102540.66;2018656;29;20447;-77
2022/08/06 00:31:37;;;;;;;0.00;0.00;;;16.90;60.80;;;18.27;52.72;102544.22;2017392;29;20056;-77
2022/08/06 00:32:45;;;;;;;0.10;0.10;;;17.00;60.90;;;18.26;52.64;102542.63;2026417;29;20079;-78
2022/08/06 00:33:56;;;;;;;0.10;0.10;;;16.90;60.80;;;18.25;52.76;102542.97;2032915;29;20056;-77
2022/08/06 00:34:59;;;;;;;0.10;0.10;;;16.90;60.90;;;18.24;52.71;102538.63;2023905;29;20097;-77
2022/08/06 00:36:03;;;;;;;0.05;0.05;;;16.90;61.00;;;18.25;53.03;102545.72;2015843;29;20124;-78
2022/08/06 00:37:06;;;;;;;0.10;0.10;;;16.90;61.50;;;18.23;52.89;102548.81;2026189;29;20087;-77
2022/08/06 00:38:22;;;;;;;0.00;0.00;;;16.90;61.00;;;18.24;52.78;102544.91;2032228;29;20060;-79
2022/08/06 00:39:27;;;;;;;0.10;0.10;;;16.90;61.10;;;18.22;53.01;102547.19;2022881;29;20055;-77
2022/08/06 00:40:34;;;;;;;0.10;0.10;;;16.80;61.10;;;18.21;52.75;102542.06;2023765;29;20051;-77
2022/08/06 00:41:55;;;;;;;0.10;0.10;;;16.80;61.20;;;18.19;53.03;102544.38;2032091;29;20135;-77
2022/08/06 00:43:02;;;;;;;0.00;0.00;;;16.80;61.30;;;18.16;52.96;102548.59;2032111;29;20563;-77
2022/08/06 00:44:16;;;;;;;0.10;0.10;;;16.80;61.40;;;18.13;52.96;102543.03;2022983;29;20517;-78
2022/08/06 00:45:34;;;;;;;0.00;0.00;;;16.70;61.40;;;18.10;52.90;102549.19;2026122;29;20079;-78
2022/08/06 00:46:41;;;;;;;0.08;0.08;;;16.60;61.50;;;18.08;52.90;102546.81;2032694;29;20144;-78
2022/08/06 00:47:44;;;;;;;0.00;0.00;;;16.60;61.60;;;18.04;53.17;102543.22;2029990;29;20060;-77
2022/08/06 00:49:08;;;;;;;0.00;0.00;;;16.60;61.80;;;18.01;53.03;102543.91;2023797;29;20135;-77
2022/08/06 00:50:13;;;;;;;0.10;0.10;;;16.60;61.90;;;18.00;53.05;102547.75;2016999;29;20057;-77
2022/08/06 00:51:20;;;;;;;0.10;0.10;;;16.60;61.90;;;17.98;53.38;102552.00;2025209;29;20595;-78
2022/08/06 00:52:24;;;;;;;0.10;0.10;;;16.50;62.20;;;17.96;53.15;102544.16;2026661;29;20124;-78
2022/08/06 00:53:27;;;;;;;0.00;0.00;;;16.60;62.00;;;17.96;53.16;102551.56;2023766;29;20064;-77
2022/08/06 00:54:36;;;;;;;0.00;0.00;;;16.60;62.70;;;17.95;53.60;102549.97;2022850;29;20088;-77
2022/08/06 00:55:41;;;;;;;0.08;0.08;;;16.50;62.10;;;17.92;53.72;102554.19;2023528;29;20516;-78
2022/08/06 00:57:05;;;;;;;0.10;0.10;;;16.50;62.20;;;17.91;53.46;102549.88;2033103;29;20457;-79
2022/08/06 00:58:13;;;;;;;;;;;16.40;62.30;;;17.90;53.39;102549.06;2026019;29;20064;-79
2022/08/06 00:59:18;;;;;;;0.00;0.00;;;16.40;62.80;;;17.89;53.16;102552.16;2017470;29;19928;-77
2022/08/06 01:00:20;;;;;;;0.10;0.10;;;16.30;62.40;;;17.85;53.27;102551.25;2017682;29;20052;-79
2022/08/06 01:01:33;;;;;;;0.03;0.03;;;16.40;62.60;;;17.78;53.42;102551.84;2018814;29;20048;-78
2022/08/06 01:02:52;;;;;;;0.10;0.10;;;16.30;62.60;;;17.77;53.60;102550.25;2018518;29;20059;-78
2022/08/06 01:03:56;;;;;;;0.00;0.00;;;16.30;62.80;;;17.74;53.95;102547.44;2016216;29;20504;-77
2022/08/06 01:04:58;;;;;;;0.00;0.00;;;16.30;63.00;;;17.72;53.74;102555.19;2015545;29;20092;-77
2022/08/06 01:06:09;;;;;;;0.00;0.00;;;16.20;63.10;;;17.68;54.05;102551.53;2017052;29;20725;-78
2022/08/06 01:07:32;;;;;;;0.00;0.00;;;16.20;63.10;;;17.68;54.03;102546.06;2018259;29;20052;-78
2022/08/06 01:08:54;;;;;;;0.00;0.00;;;16.10;63.20;;;17.67;54.08;102558.16;2019390;29;20963;-77
2022/08/06 01:09:57;;;;;;;0.00;0.00;;;16.10;63.30;;;17.65;54.26;102554.97;2025181;29;20517;-78
2022/08/06 01:11:04;;;;;;;0.00;0.00;;;16.20;63.40;;;17.61;54.30;102549.41;2024789;29;20052;-78
2022/08/06 01:12:12;;;;;;;0.10;0.10;;;16.20;63.60;;;17.61;54.43;102554.88;2015946;29;20553;-78
2022/08/06 01:13:15;;;;;;;0.00;0.00;;;16.10;63.50;;;17.63;54.28;102568.19;2016253;29;20512;-76
2022/08/06 01:14:28;;;;;;;0.00;0.00;;;16.10;63.60;;;17.62;54.34;102555.66;2011388;29;20103;-77
2022/08/06 01:15:42;;;;;;;0.00;0.00;;;16.10;63.60;;;17.61;54.62;102559.53;2012062;29;20054;-78
2022/08/06 01:17:23;;;;;;;0.10;0.00;;;16.20;63.70;;;17.61;54.17;102559.53;2028720;29;20057;-78
2022/08/06 01:18:31;;;;;;;0.00;0.00;;;16.20;63.60;;;17.61;54.05;102559.53;2025076;29;20056;-77
2022/08/06 01:19:51;;;;;;;0.00;0.00;;;16.20;63.60;;;17.60;54.36;102557.97;2018732;29;20061;-77
2022/08/06 01:21:50;;;;;;;0.00;0.00;;;16.20;63.80;;;17.62;54.23;102561.13;2028718;29;20056;-76
2022/08/06 01:23:36;;;;;;;0.00;0.00;;;16.20;63.90;;;17.61;54.15;102567.75;2028015;29;20432;-78
2022/08/06 01:25:04;;;;;;;0.00;0.00;;;16.10;63.50;;;17.57;54.13;102572.28;2030525;29;20052;-78
2022/08/06 01:26:47;;;;;;;0.00;0.00;;;16.20;63.70;;;17.52;54.23;102570.59;2030976;29;20522;-75
2022/08/06 01:28:01;;;;;;;0.00;0.00;;;16.20;63.70;;;17.50;54.26;102566.63;2027750;29;20056;-75
2022/08/06 01:29:16;;;;;;;0.00;0.00;;;16.20;63.50;;;17.46;54.23;102566.50;2023986;29;20451;-75
2022/08/06 01:30:22;;;;;;;0.00;0.00;;;16.10;63.50;;;17.44;54.61;102570.72;2029926;29;20079;-75
2022/08/06 01:31:37;;;;;;;0.00;0.00;;;16.10;63.50;;;17.41;54.79;102576.88;2029914;29;20115;-75
2022/08/06 01:32:47;;;;;;;0.00;0.00;;;16.10;63.70;;;17.39;54.94;102562.75;2024558;29;20055;-75
2022/08/06 01:33:57;;;;;;;0.00;0.00;;;16.10;63.70;;;17.39;54.90;102573.69;2030612;29;20481;-75
2022/08/06 01:35:06;;;;;;;0.00;0.00;;;16.00;63.80;;;17.36;55.04;102574.38;2030033;29;20098;-75
2022/08/06 01:36:25;;;;;;;0.00;0.00;;;16.00;63.90;;;17.37;55.13;102581.41;2031158;29;20052;-75
2022/08/06 01:37:37;;;;;;;0.00;0.00;;;16.00;64.00;;;17.33;54.92;102573.09;2029190;29;20056;-75
2022/08/06 01:38:48;;;;;;;0.00;0.00;;;16.00;64.10;;;17.33;55.12;102575.84;2031276;29;20099;-75
2022/08/06 01:40:05;;;;;;;0.03;0.03;;;16.00;64.30;;;17.31;54.92;102572.69;2037399;29;20091;-74
2022/08/06 01:41:38;;;;;;;0.00;0.00;;;16.00;64.40;;;17.31;55.38;102578.13;2032848;29;20098;-74
2022/08/06 01:43:07;;;;;;;0.00;0.00;;;16.00;64.50;;;17.31;55.14;102577.31;2027047;29;20052;-74
2022/08/06 01:44:34;;;;;;;0.00;0.00;;;15.90;64.50;;;17.30;55.05;102575.75;2024811;29;20521;-75
2022/08/06 01:45:40;;;;;;;0.00;0.00;;;15.90;64.60;;;17.27;55.13;102576.41;2022809;29;20115;-74
2022/08/06 01:47:03;;;;;;;0.00;0.00;;;15.90;64.60;;;17.24;55.15;102571.63;2025758;29;20056;-75
2022/08/06 01:48:19;;;;;;;0.00;0.00;;;15.90;64.70;;;17.22;55.42;102590.31;2033575;29;20056;-75
2022/08/06 01:49:33;;;;;;;0.00;0.00;;;15.90;64.80;;;17.18;55.47;102576.56;2031202;29;20059;-75
2022/08/06 01:51:03;;;;;;;0.10;0.10;;;15.90;64.90;;;17.14;55.54;102581.09;2027739;29;20135;-75
2022/08/06 01:52:07;;;;;;;0.03;0.03;;;15.90;65.00;;;17.13;55.77;102581.44;2023593;29;20063;-75
2022/08/06 01:53:26;;;;;;;0.00;0.00;;;15.90;65.00;;;17.13;55.64;102589.63;2023759;29;20091;-75
2022/08/06 01:54:52;;;;;;;0.00;0.00;;;15.80;65.00;;;17.13;55.83;102586.88;2017845;29;20052;-75
2022/08/06 01:56:00;;;;;;;0.00;0.00;;;15.80;65.00;;;17.09;55.81;102586.81;2015604;29;20057;-74
2022/08/06 01:57:11;;;;;;;0.00;0.00;;;15.80;65.00;;;17.11;55.92;102589.19;2029609;29;20127;-74
2022/08/06 01:58:42;;;;;;;0.00;0.00;;;15.80;65.10;;;17.08;56.07;102587.13;2030006;29;20056;-75
2022/08/06 01:59:53;;;;;;;0.00;0.00;;;15.80;65.40;;;17.08;55.96;102578.94;2029396;29;20090;-75
2022/08/06 02:01:03;;;;;;;0.00;0.00;;;15.80;65.40;;;17.06;55.82;102583.94;2023101;29;20171;-78
2022/08/06 02:02:11;;;;;;;0.00;0.00;;;15.80;65.40;;;17.03;56.29;102588.13;2023421;29;20194;-77
2022/08/06 02:03:25;;;;;;;0.00;0.00;;;15.80;65.40;;;17.03;55.89;102587.38;2033311;29;20052;-78
2022/08/06 02:04:43;;;;;;;0.00;0.00;;;15.80;65.50;;;17.03;56.18;102587.38;2036047;29;20464;-78
2022/08/06 02:05:53;;;;;;;0.00;0.00;;;15.70;65.40;;;17.01;56.29;102595.09;2037972;29;20067;-78
2022/08/06 02:07:04;;;;;;;0.00;0.00;;;15.70;65.50;;;16.99;56.18;102587.25;2038050;29;20131;-77
2022/08/06 02:08:33;;;;;;;0.00;0.00;;;15.70;65.50;;;16.96;56.43;102593.38;2030074;29;20383;-77
2022/08/06 02:09:44;;;;;;;0.00;0.00;;;15.70;65.70;;;16.97;56.48;102594.16;2030022;29;20056;-78
2022/08/06 02:10:51;;;;;;;0.00;0.00;;;15.70;65.80;;;16.96;56.65;102598.03;2024228;29;20517;-77
2022/08/06 02:12:00;;;;;;;0.00;0.00;;;15.60;65.90;;;16.95;56.66;102596.47;2023060;29;20437;-78
2022/08/06 02:13:11;;;;;;;0.00;0.00;;;15.70;66.10;;;16.92;56.84;102589.72;2023095;29;20052;-77
2022/08/06 02:14:20;;;;;;;0.10;0.10;;;15.70;66.20;;;16.94;56.31;102594.84;2023882;29;20072;-77
2022/08/06 02:15:34;;;;;;;0.00;0.00;;;15.60;66.30;;;16.95;56.49;102591.00;2030811;29;20554;-78
2022/08/06 02:17:01;;;;;;;0.00;0.00;;;15.60;66.20;;;16.96;56.63;102593.38;2030063;29;20056;-77
2022/08/06 02:18:21;;;;;;;0.03;0.03;;;15.60;66.30;;;16.95;56.63;102591.00;2029580;29;20067;-77
2022/08/06 02:19:41;;;;;;;0.00;0.00;;;15.50;66.40;;;16.93;56.52;102591.34;2029282;29;20063;-77
2022/08/06 02:21:06;;;;;;;0.00;0.00;;;15.50;66.60;;;16.91;56.70;102595.53;2030456;29;20083;-78
2022/08/06 02:22:23;;;;;;;0.00;0.00;;;15.40;66.80;;;16.88;56.59;102601.69;2020720;29;20056;-77
2022/08/06 02:23:29;;;;;;;0.00;0.00;;;15.40;67.00;;;16.86;56.69;102595.75;2024370;29;20274;-77
2022/08/06 02:24:38;;;;;;;0.00;0.00;;;15.40;67.20;;;16.84;56.87;102595.31;2033567;29;20052;-77
2022/08/06 02:25:44;;;;;;;0.00;0.00;;;15.40;67.10;;;16.80;56.93;102600.66;2038306;29;20052;-77
2022/08/06 02:26:59;;;;;;;0.00;0.00;;;15.40;67.40;;;16.79;57.08;102601.00;2033140;29;20539;-77
2022/08/06 02:28:05;;;;;;;0.00;0.00;;;15.30;67.50;;;16.75;57.03;102602.78;2033524;29;20124;-77
2022/08/06 02:29:12;;;;;;;0.00;0.00;;;15.20;67.70;;;16.72;57.34;102609.72;2039793;29;20042;-77
2022/08/06 02:30:18;;;;;;;0.00;0.00;;;15.10;67.90;;;16.67;57.33;102606.41;2032153;29;20520;-77
2022/08/06 02:31:31;;;;;;;0.00;0.00;;;15.00;68.30;;;16.64;57.54;102607.09;2032511;29;20505;-76
2022/08/06 02:32:52;;;;;;;0.00;0.00;;;15.00;68.60;;;16.62;57.67;102603.94;2024231;29;20052;-76
2022/08/06 02:33:55;;;;;;;0.00;0.00;;;14.90;68.90;;;16.60;57.65;102606.19;2015695;29;20195;-77
2022/08/06 02:35:06;;;;;;;0.00;0.00;;;14.90;69.10;;;16.57;57.96;102609.59;2032928;29;20181;-77
2022/08/06 02:36:18;;;;;;;0.00;0.00;;;14.90;69.10;;;16.55;58.05;102611.84;2030911;29;20059;-77
2022/08/06 02:37:35;;;;;;;0.00;0.00;;;14.90;69.30;;;16.54;58.12;102613.00;2023206;29;20516;-78
2022/08/06 02:39:07;;;;;;;0.00;0.00;;;14.90;69.20;;;16.51;58.06;102603.53;2028140;29;20048;-77
2022/08/06 02:40:21;;;;;;;0.00;0.00;;;14.90;69.30;;;16.51;58.19;102614.44;2033342;29;20059;-75
2022/08/06 02:41:35;;;;;;;0.00;0.00;;;14.80;69.40;;;16.47;58.25;102612.75;2038995;29;20567;-75
2022/08/06 02:42:48;;;;;;;0.00;0.00;;;14.80;69.60;;;16.45;57.98;102613.06;2032213;29;20044;-75
2022/08/06 02:43:57;;;;;;;0.00;0.00;;;14.70;69.80;;;16.41;58.25;102610.19;2025181;29;20172;-75
2022/08/06 02:45:05;;;;;;;0.00;0.00;;;14.70;70.00;;;16.38;58.53;102615.50;2023440;29;20533;-75
2022/08/06 02:46:22;;;;;;;0.00;0.00;;;14.70;70.00;;;16.37;58.30;102620.19;2032046;29;20130;-75
2022/08/06 02:47:35;;;;;;;0.00;0.00;;;14.70;70.20;;;16.36;58.36;102618.56;2039703;29;21301;-74
2022/08/06 02:49:13;;;;;;;0.03;0.03;;;14.70;70.30;;;16.33;58.64;102611.06;2023979;29;20146;-75
2022/08/06 02:50:32;;;;;;;0.00;0.00;;;14.70;70.40;;;16.35;58.39;102616.19;2029530;29;20195;-75
2022/08/06 02:51:45;;;;;;;0.00;0.00;;;14.70;70.30;;;16.34;58.69;102607.22;2039853;29;20555;-75
2022/08/06 02:53:11;;;;;;;0.00;0.00;;;14.70;70.30;;;16.34;58.85;102620.06;2024599;29;20156;-75
2022/08/06 02:54:35;;;;;;;0.00;0.00;;;14.70;70.30;;;16.34;58.48;102618.13;2025571;29;20552;-75
2022/08/06 02:55:54;;;;;;;0.00;0.00;;;14.70;70.40;;;16.33;58.57;102618.47;2024582;29;20473;-75
2022/08/06 02:57:06;;;;;;;0.00;0.00;;;14.70;70.30;;;16.29;58.83;102610.16;2024065;29;20521;-75
2022/08/06 02:58:17;;;;;;;0.00;0.00;;;14.70;70.40;;;16.28;58.74;102611.28;2032081;29;20512;-76
2022/08/06 02:59:29;;;;;;;0.00;0.00;;;14.70;70.40;;;16.28;58.95;102621.41;2031605;29;20059;-75
2022/08/06 03:00:46;;;;;;;0.00;0.00;;;14.70;70.30;;;16.28;59.01;102616.72;2025675;29;20053;-76
2022/08/06 03:02:00;;;;;;;0.00;0.00;;;14.70;70.20;;;16.28;58.91;102622.19;2022353;29;20529;-76
2022/08/06 03:03:08;;;;;;;0.00;0.00;;;14.80;70.20;;;16.27;58.79;102614.34;2026933;29;20428;-76
2022/08/06 03:04:26;;;;;;;0.00;0.00;;;14.80;70.10;;;16.27;58.77;102614.34;2034767;29;20056;-75
2022/08/06 03:05:35;;;;;;;0.00;0.00;;;14.80;70.00;;;16.27;58.92;102615.16;2031713;29;20055;-75
2022/08/06 03:07:04;;;;;;;0.00;0.00;;;14.80;70.00;;;16.29;58.93;102609.38;2034781;29;20051;-76
2022/08/06 03:08:30;;;;;;;0.00;0.00;;;14.80;70.10;;;16.28;58.80;102616.72;2030725;29;20552;-76
2022/08/06 03:09:33;;;;;;;0.00;0.00;;;14.70;70.00;;;16.28;58.76;102616.72;2031070;29;20059;-76
2022/08/06 03:10:41;;;;;;;0.00;0.00;;;14.80;70.10;;;16.28;59.00;102615.94;2032061;29;20111;-75
2022/08/06 03:11:47;;;;;;;0.00;0.00;;;14.80;70.00;;;16.29;58.90;102614.81;2038641;29;20055;-77
2022/08/06 03:12:54;;;;;;;0.00;0.00;;;14.80;70.00;;;16.28;59.01;102616.72;2029916;29;20048;-76
2022/08/06 03:14:00;;;;;;;0.00;0.00;;;14.80;70.00;;;16.29;58.95;102620.25;2031655;29;20603;-77
2022/08/06 03:15:06;;;;;;;0.00;0.00;;;14.80;69.90;;;16.31;58.91;102615.28;2032108;29;20083;-77
2022/08/06 03:16:14;;;;;;;0.00;0.00;;;14.90;70.40;;;16.30;58.62;102619.13;2033339;29;20508;-77
2022/08/06 03:17:29;;;;;;;0.00;0.00;;;14.90;69.70;;;16.31;58.94;102621.53;2030324;29;20094;-78
2022/08/06 03:18:32;;;;;;;0.00;0.00;;;14.90;69.60;;;16.31;58.76;102621.53;2024770;29;20123;-77
2022/08/06 03:19:38;;;;;;;0.00;0.00;;;14.90;69.60;;;16.30;58.82;102621.84;2030054;29;20051;-78
2022/08/06 03:21:03;;;;;;;0.00;0.00;;;14.90;69.60;;;16.31;58.83;102623.47;2021964;29;20064;-78
2022/08/06 03:22:12;;;;;;;0.00;0.00;;;14.90;70.20;;;16.30;58.83;102625.38;2024403;29;20131;-77
2022/08/06 03:23:38;;;;;;;0.00;0.00;;;14.80;69.60;;;16.31;58.74;102632.44;2021174;29;20041;-78
2022/08/06 03:24:44;;;;;;;0.00;0.00;;;14.80;69.70;;;16.30;58.72;102628.09;2016102;29;20410;-78
2022/08/06 03:25:51;;;;;;;0.00;0.00;;;14.80;69.70;;;16.30;58.75;102621.84;2033030;29;20623;-77
2022/08/06 03:26:58;;;;;;;0.00;0.00;;;14.80;69.70;;;16.27;58.70;102626.06;2036361;29;20075;-74
2022/08/06 03:28:04;;;;;;;0.00;0.00;;;14.80;70.30;;;16.29;58.75;102621.06;2039485;29;20063;-74
2022/08/06 03:29:07;;;;;;;0.00;0.00;;;14.90;69.70;;;16.31;58.67;102632.44;2039193;29;20063;-77
2022/08/06 03:30:13;;;;;;;0.00;0.00;;;14.80;69.70;;;16.31;58.87;102627.00;2031500;29;20047;-77
2022/08/06 03:31:35;;;;;;;0.00;0.00;;;14.90;69.80;;;16.33;58.82;102629.38;2033712;29;20058;-77
2022/08/06 03:32:41;;;;;;;0.00;0.00;;;14.80;69.80;;;16.32;58.77;102623.13;2029661;29;20134;-78
2022/08/06 03:33:55;;;;;;;0.00;0.00;;;14.80;69.90;;;16.32;58.62;102628.56;2032450;29;20056;-78
2022/08/06 03:34:59;;;;;;;0.00;0.00;;;14.80;70.30;;;16.25;58.82;102617.41;2039616;29;20055;-77
2022/08/06 03:36:05;;;;;;;0.00;0.00;;;14.70;70.10;;;16.29;58.78;102626.53;2031674;29;20075;-77
2022/08/06 03:37:13;;;;;;;0.00;0.00;;;14.70;70.20;;;16.29;59.07;102633.91;2031818;29;20054;-77
2022/08/06 03:38:19;;;;;;;0.00;0.00;;;14.70;70.40;;;16.26;58.95;102629.13;2032230;29;20071;-76
2022/08/06 03:39:24;;;;;;;0.00;0.00;;;14.60;70.60;;;16.25;59.16;102630.25;2039067;29;20094;-78
2022/08/06 03:40:28;;;;;;;0.00;0.00;;;14.60;70.80;;;16.21;59.12;102627.41;2037956;29;20381;-77
2022/08/06 03:41:36;;;;;;;0.00;0.00;;;14.50;70.80;;;16.17;59.32;102631.91;2038245;29;20087;-78
2022/08/06 03:42:41;;;;;;;0.00;0.00;;;14.50;71.20;;;16.15;59.29;102627.94;2031392;29;20059;-78
2022/08/06 03:43:46;;;;;;;0.00;0.00;;;14.40;71.20;;;16.13;59.39;102624.75;2031766;29;20501;-77
2022/08/06 03:45:07;;;;;;;0.00;0.00;;;14.40;71.40;;;16.09;59.42;102624.59;2031184;29;20044;-77
2022/08/06 03:46:31;;;;;;;0.05;0.05;;;14.30;71.50;;;16.07;59.42;102620.63;2033711;29;20523;-77
2022/08/06 03:47:41;;;;;;;0.00;0.00;;;14.30;71.70;;;16.04;59.63;102627.56;2039113;29;20052;-77
2022/08/06 03:49:09;;;;;;;0.03;0.03;;;14.30;71.90;;;16.04;59.39;102633.00;2032615;29;20052;-78
2022/08/06 03:50:19;;;;;;;0.00;0.00;;;14.20;71.80;;;16.01;59.69;102625.50;2033552;29;20063;-78
2022/08/06 03:51:29;;;;;;;0.00;0.00;;;14.20;72.00;;;16.01;59.75;102632.88;2031730;29;20060;-78
2022/08/06 03:53:00;;;;;;;0.05;0.05;;;14.20;72.10;;;16.00;59.96;102632.06;2034030;29;20450;-78
2022/08/06 03:54:04;;;;;;;0.00;0.00;;;14.20;72.10;;;15.98;59.72;102625.38;2039271;29;20055;-78
2022/08/06 03:55:18;;;;;;;0.03;0.03;;;14.20;72.10;;;15.99;59.74;102633.22;2030230;29;20175;-77
2022/08/06 03:56:28;;;;;;;0.00;0.00;;;14.30;72.20;;;15.99;59.79;102627.75;2032959;29;20115;-78
2022/08/06 03:57:38;;;;;;;0.10;0.10;;;14.30;72.00;;;16.00;59.76;102631.25;2038506;29;20122;-78
2022/08/06 03:58:44;;;;;;;0.00;0.00;;;14.30;71.90;;;15.99;59.67;102629.66;2031373;29;20047;-78
2022/08/06 03:59:58;;;;;;;0.00;0.00;;;14.40;71.90;;;16.01;59.72;102638.31;2023524;29;20517;-78
2022/08/06 04:01:21;;;;;;;0.10;0.10;;;14.30;71.80;;;16.01;59.74;102633.69;2033741;29;20126;-78
2022/08/06 04:02:30;;;;;;;0.00;0.00;;;14.30;71.90;;;16.02;59.26;102637.19;2029988;29;20560;-77
2022/08/06 04:03:50;;;;;;;0.00;0.00;;;14.40;72.00;;;16.01;59.61;102641.84;2026912;29;20055;-78
2022/08/06 04:04:59;;;;;;;0.10;0.10;;;14.40;71.80;;;16.03;59.51;102641.53;2033574;29;20090;-77
2022/08/06 04:06:03;;;;;;;0.00;0.00;;;14.50;71.60;;;16.02;59.73;102638.00;2031754;29;20091;-78
2022/08/06 04:07:10;;;;;;;0.00;0.00;;;14.50;71.50;;;16.01;59.67;102632.88;2032122;29;20149;-77
2022/08/06 04:08:18;;;;;;;;;;;14.60;71.30;;;16.04;59.56;102643.91;2031681;29;20055;-78
2022/08/06 04:09:24;;;;;;;0.08;0.08;;;14.60;71.70;;;16.04;59.55;102649.34;2025084;29;20517;-78
2022/08/06 04:10:49;;;;;;;0.00;0.00;;;14.60;71.00;;;16.07;59.62;102656.88;2031887;29;20044;-78
2022/08/06 04:11:59;;;;;;;0.00;0.00;;;14.60;71.00;;;16.05;59.68;102648.22;2038846;29;20476;-78
2022/08/06 04:13:26;;;;;;;0.00;0.00;;;14.60;70.90;;;16.04;59.78;102651.28;2031752;29;20142;-79
2022/08/06 04:14:49;;;;;;;0.00;0.00;;;14.70;70.80;;;16.06;59.80;102651.75;2034128;29;20070;-77
2022/08/06 04:15:54;;;;;;;0.00;0.00;;;14.70;70.80;;;16.03;59.75;102641.53;2030459;29;20555;-78
2022/08/06 04:17:00;;;;;;;0.00;0.00;;;14.70;70.80;;;16.06;59.76;102643.56;2024174;29;20061;-74
2022/08/06 04:18:08;;;;;;;0.00;0.00;;;14.80;70.80;;;16.06;60.02;102647.06;2023728;29;20052;-75
2022/08/06 04:19:18;;;;;;;0.00;0.00;;;14.80;70.80;;;16.08;60.07;102650.28;2024064;29;20090;-75
2022/08/06 04:20:35;;;;;;;0.00;0.00;;;14.80;70.70;;;16.07;59.90;102659.59;2026134;29;20059;-75
2022/08/06 04:21:46;;;;;;;0.00;0.00;;;14.80;70.60;;;16.07;60.07;102654.13;2033722;29;20088;-75
2022/08/06 04:23:10;;;;;;;0.00;0.00;;;14.80;70.60;;;16.11;59.65;102657.00;2034632;29;20147;-74
2022/08/06 04:24:14;;;;;;;0.00;0.00;;;14.80;70.60;;;16.11;59.92;102660.50;2028072;29;20063;-74
2022/08/06 04:25:18;;;;;;;0.00;0.00;;;14.80;70.60;;;16.14;59.88;102661.78;2028433;29;20548;-77
2022/08/06 04:26:24;;;;;;;0.00;0.00;;;14.90;70.70;;;16.13;60.02;102663.69;2029480;29;20417;-78
2022/08/06 04:27:28;;;;;;;0.10;0.10;;;14.80;70.40;;;16.12;60.04;102656.66;2029920;29;20096;-77
2022/08/06 04:28:36;;;;;;;0.10;0.10;;;14.90;70.40;;;16.10;60.36;102661.66;2029895;29;20469;-77
2022/08/06 04:29:44;;;;;;;0.10;0.10;;;14.90;70.50;;;16.07;60.42;102659.59;2022913;29;20465;-74
2022/08/06 04:31:00;;;;;;;0.10;0.10;;;14.80;70.60;;;16.03;60.25;102658.63;2022429;29;20123;-74
2022/08/06 04:32:10;;;;;;;0.10;0.10;;;14.90;70.80;;;16.01;60.80;102665.56;2021089;29;20432;-74
2022/08/06 04:33:24;;;;;;;0.05;0.05;;;14.80;71.00;;;15.94;60.99;102660.66;2021331;29;20060;-74
2022/08/06 04:34:41;;;;;;;0.10;0.10;;;14.80;71.10;;;15.94;61.14;102666.09;2024455;29;21636;-74
2022/08/06 04:36:05;;;;;;;0.08;0.08;;;14.80;71.30;;;15.99;61.04;102667.81;2024523;29;20143;-74
2022/08/06 04:37:27;;;;;;;0.10;0.10;;;14.70;71.30;;;16.03;60.78;102674.22;2023714;29;20064;-74
2022/08/06 04:38:42;;;;;;;0.00;0.00;;;14.70;71.40;;;16.03;60.73;102658.63;2023411;29;20075;-74
2022/08/06 04:39:54;;;;;;;0.05;0.05;;;14.60;71.50;;;16.04;60.68;102662.97;2023867;29;20091;-74
2022/08/06 04:40:56;;;;;;;0.00;0.00;;;14.60;71.60;;;16.07;60.64;102669.69;2030794;29;20056;-77
2022/08/06 04:42:02;;;;;;;0.00;0.00;;;14.60;71.70;;;16.08;60.63;102672.06;2029789;29;20135;-78
2022/08/06 04:43:09;;;;;;;0.00;0.00;;;14.70;71.80;;;16.11;60.72;102665.94;2028498;29;20599;-78
2022/08/06 04:44:13;;;;;;;0.10;0.10;;;14.60;71.80;;;16.12;60.72;102673.00;2027762;29;20052;-78
2022/08/06 04:45:18;;;;;;;0.00;0.00;;;14.70;71.90;;;16.15;60.62;102677.00;2020950;29;20452;-77
2022/08/06 04:46:48;;;;;;;0.10;0.10;;;14.70;72.40;;;16.18;60.49;102679.03;2020471;29;20056;-78
2022/08/06 04:47:51;;;;;;;0.10;0.10;;;14.70;72.00;;;16.18;60.54;102677.13;2029825;29;20068;-78
2022/08/06 04:48:55;;;;;;;0.00;0.00;;;14.60;71.90;;;16.17;60.63;102672.78;2021626;29;20059;-78
2022/08/06 04:50:05;;;;;;;0.10;0.10;;;14.60;72.00;;;16.17;60.60;102669.28;2022611;29;20084;-78
2022/08/06 04:51:13;;;;;;;0.10;0.10;;;14.70;72.20;;;16.18;60.44;102677.13;2029938;29;20357;-78
2022/08/06 04:52:23;;;;;;;0.10;0.10;;;14.70;72.10;;;16.20;60.51;102676.78;2030543;29;20060;-77
2022/08/06 04:53:41;;;;;;;0.05;0.05;;;14.70;72.20;;;16.23;60.57;102679.66;2030967;29;20055;-78
2022/08/06 04:54:59;;;;;;;0.10;0.10;;;14.80;72.10;;;16.23;60.46;102673.41;2030548;29;20064;-78
2022/08/06 04:56:02;;;;;;;0.00;0.00;;;14.80;72.00;;;16.25;60.51;102687.50;2029148;29;20131;-78
2022/08/06 04:57:05;;;;;;;0.00;0.00;;;14.80;72.00;;;16.26;60.64;102689.06;2030064;29;20155;-78
2022/08/06 04:58:24;;;;;;;0.00;0.00;;;14.80;72.10;;;16.26;60.62;102678.97;2029236;29;20156;-78
2022/08/06 04:59:34;;;;;;;0.10;0.10;;;14.80;72.10;;;16.28;60.75;102686.81;2033860;29;20556;-79
2022/08/06 05:00:53;;;;;;;0.00;0.00;;;14.70;72.20;;;16.24;60.75;102683.97;2036788;29;20105;-78